sensor_id;sensor_type;location;lat;lon;timestamp;pressure;altitude;pressure_sealevel;temperature;humidity
54262;BME280;40174;52.364;6.452;2022-12-18T00:01:37;102624.59;;;-5.36;100.00
54262;BME280;40174;52.364;6.452;2022-12-18T00:04:14;102615.13;;;-5.38;100.00
54262;BME280;40174;52.364;6.452;2022-12-18T00:06:43;102621.13;;;-5.39;100.00
54262;BME280;40174;52.364;6.452;2022-12-18T00:09:10;102621.09;;;-5.43;100.00
54262;BME280;40174;52.364;6.452;2022-12-18T00:11:36;102620.22;;;-5.45;100.00
54262;BME280;40174;52.364;6.452;2022-12-18T00:14:03;102621.81;;;-5.53;100.00
54262;BME280;40174;52.364;6.452;2022-12-18T00:16:30;102626.06;;;-5.55;100.00
54262;BME280;40174;52.364;6.452;2022-12-18T00:18:59;102618.22;;;-5.61;100.00
54262;BME280;40174;52.364;6.452;2022-12-18T00:21:27;102616.47;;;-5.64;100.00
54262;BME280;40174;52.364;6.452;2022-12-18T00:23:55;102615.50;;;-5.70;100.00
54262;BME280;40174;52.364;6.452;2022-12-18T00:26:23;102617.19;;;-5.74;100.00
54262;BME280;40174;52.364;6.452;2022-12-18T00:28:58;102619.69;;;-5.78;100.00
54262;BME280;40174;52.364;6.452;2022-12-18T00:31:24;102607.63;;;-5.81;100.00
54262;BME280;40174;52.364;6.452;2022-12-18T00:33:53;102605.84;;;-5.85;100.00
54262;BME280;40174;52.364;6.452;2022-12-18T00:36:22;102599.78;;;-5.89;100.00
54262;BME280;40174;52.364;6.452;2022-12-18T00:38:51;102598.84;;;-5.94;100.00
54262;BME280;40174;52.364;6.452;2022-12-18T00:41:19;102601.38;;;-5.97;100.00
54262;BME280;40174;52.364;6.452;2022-12-18T00:44:00;102594.44;;;-6.02;100.00
54262;BME280;40174;52.364;6.452;2022-12-18T00:46:26;102599.56;;;-6.04;100.00
54262;BME280;40174;52.364;6.452;2022-12-18T00:48:53;102594.38;;;-6.06;100.00
54262;BME280;40174;52.364;6.452;2022-12-18T00:51:20;102596.94;;;-6.07;100.00
54262;BME280;40174;52.364;6.452;2022-12-18T00:53:46;102590.84;;;-6.11;100.00
54262;BME280;40174;52.364;6.452;2022-12-18T00:56:13;102590.75;;;-6.18;100.00
54262;BME280;40174;52.364;6.452;2022-12-18T00:58:41;102592.44;;;-6.19;100.00
54262;BME280;40174;52.364;6.452;2022-12-18T01:01:08;102602.56;;;-6.28;100.00
54262;BME280;40174;52.364;6.452;2022-12-18T01:03:34;102589.78;;;-6.25;100.00
54262;BME280;40174;52.364;6.452;2022-12-18T01:06:06;102594.09;;;-6.22;100.00
54262;BME280;40174;52.364;6.452;2022-12-18T01:08:32;102593.94;;;-6.30;100.00
54262;BME280;40174;52.364;6.452;2022-12-18T01:10:59;102599.06;;;-6.33;100.00
54262;BME280;40174;52.364;6.452;2022-12-18T01:13:26;102595.59;;;-6.35;100.00
54262;BME280;40174;52.364;6.452;2022-12-18T01:15:54;102592.94;;;-6.40;100.00
54262;BME280;40174;52.364;6.452;2022-12-18T01:18:21;102606.66;;;-6.39;100.00
54262;BME280;40174;52.364;6.452;2022-12-18T01:20:47;102594.63;;;-6.40;100.00
54262;BME280;40174;52.364;6.452;2022-12-18T01:23:14;102593.75;;;-6.42;100.00
54262;BME280;40174;52.364;6.452;2022-12-18T01:25:41;102608.31;;;-6.43;100.00
54262;BME280;40174;52.364;6.452;2022-12-18T01:28:09;102603.91;;;-6.50;100.00
54262;BME280;40174;52.364;6.452;2022-12-18T01:30:35;102598.66;;;-6.55;100.00
54262;BME280;40174;52.364;6.452;2022-12-18T01:33:04;102588.09;;;-6.69;100.00
54262;BME280;40174;52.364;6.452;2022-12-18T01:35:31;102597.56;;;-6.67;100.00
54262;BME280;40174;52.364;6.452;2022-12-18T01:37:57;102587.25;;;-6.69;100.00
54262;BME280;40174;52.364;6.452;2022-12-18T01:40:24;102574.41;;;-6.67;100.00
54262;BME280;40174;52.364;6.452;2022-12-18T01:42:51;102580.44;;;-6.67;100.00
54262;BME280;40174;52.364;6.452;2022-12-18T01:45:23;102578.66;;;-6.70;100.00
54262;BME280;40174;52.364;6.452;2022-12-18T01:47:52;102595.84;;;-6.67;100.00
54262;BME280;40174;52.364;6.452;2022-12-18T01:50:23;102599.28;;;-6.68;100.00
54262;BME280;40174;52.364;6.452;2022-12-18T01:52:54;102596.59;;;-6.73;100.00
54262;BME280;40174;52.364;6.452;2022-12-18T01:55:23;102599.97;;;-6.77;100.00
54262;BME280;40174;52.364;6.452;2022-12-18T01:57:52;102611.84;;;-6.82;100.00
54262;BME280;40174;52.364;6.452;2022-12-18T02:00:21;102606.66;;;-6.85;100.00
54262;BME280;40174;52.364;6.452;2022-12-18T02:02:51;102604.03;;;-6.88;100.00
54262;BME280;40174;52.364;6.452;2022-12-18T02:05:25;102610.03;;;-6.87;100.00
54262;BME280;40174;52.364;6.452;2022-12-18T02:08:03;102608.19;;;-6.93;100.00
54262;BME280;40174;52.364;6.452;2022-12-18T02:10:38;102616.72;;;-6.96;100.00
54262;BME280;40174;52.364;6.452;2022-12-18T02:13:13;102611.56;;;-6.96;100.00
54262;BME280;40174;52.364;6.452;2022-12-18T02:15:44;102606.38;;;-6.99;100.00
54262;BME280;40174;52.364;6.452;2022-12-18T02:18:18;102625.19;;;-7.01;100.00
54262;BME280;40174;52.364;6.452;2022-12-18T02:20:49;102603.63;;;-7.08;100.00
54262;BME280;40174;52.364;6.452;2022-12-18T02:23:35;102603.53;;;-7.11;100.00
54262;BME280;40174;52.364;6.452;2022-12-18T02:26:15;102596.59;;;-7.15;100.00
54262;BME280;40174;52.364;6.452;2022-12-18T02:28:53;102597.38;;;-7.19;100.00
54262;BME280;40174;52.364;6.452;2022-12-18T02:31:24;102600.75;;;-7.22;100.00
54262;BME280;40174;52.364;6.452;2022-12-18T02:33:58;102601.56;;;-7.23;100.00
54262;BME280;40174;52.364;6.452;2022-12-18T02:43:32;102610.09;;;-7.25;100.00
54262;BME280;40174;52.364;6.452;2022-12-18T02:48:43;102609.91;;;-7.35;100.00
54262;BME280;40174;52.364;6.452;2022-12-18T02:51:18;102615.78;;;-7.39;100.00
54262;BME280;40174;52.364;6.452;2022-12-18T02:53:51;102614.84;;;-7.42;100.00
54262;BME280;40174;52.364;6.452;2022-12-18T02:56:21;102611.38;;;-7.44;100.00
54262;BME280;40174;52.364;6.452;2022-12-18T02:58:59;102615.66;;;-7.45;100.00
54262;BME280;40174;52.364;6.452;2022-12-18T03:01:36;102617.31;;;-7.48;100.00
54262;BME280;40174;52.364;6.452;2022-12-18T03:04:08;102627.53;;;-7.50;100.00
54262;BME280;40174;52.364;6.452;2022-12-18T03:06:41;102622.41;;;-7.50;100.00
54262;BME280;40174;52.364;6.452;2022-12-18T03:09:10;102600.91;;;-7.54;100.00
54262;BME280;40174;52.364;6.452;2022-12-18T03:11:43;102603.41;;;-7.57;100.00
54262;BME280;40174;52.364;6.452;2022-12-18T03:14:33;102602.44;;;-7.60;100.00
54262;BME280;40174;52.364;6.452;2022-12-18T03:17:07;102594.69;;;-7.63;100.00
54262;BME280;40174;52.364;6.452;2022-12-18T03:19:39;102586.03;;;-7.67;100.00
54262;BME280;40174;52.364;6.452;2022-12-18T03:22:09;102589.41;;;-7.69;100.00
54262;BME280;40174;52.364;6.452;2022-12-18T03:24:44;102581.59;;;-7.74;100.00
54262;BME280;40174;52.364;6.452;2022-12-18T03:27:15;102584.97;;;-7.77;100.00
54262;BME280;40174;52.364;6.452;2022-12-18T03:29:47;102588.28;;;-7.82;100.00
54262;BME280;40174;52.364;6.452;2022-12-18T03:32:25;102587.28;;;-7.87;100.00
54262;BME280;40174;52.364;6.452;2022-12-18T03:34:57;102583.72;;;-7.92;100.00
54262;BME280;40174;52.364;6.452;2022-12-18T03:37:32;102570.91;;;-7.92;100.00
54262;BME280;40174;52.364;6.452;2022-12-18T03:40:00;102566.56;;;-7.95;100.00
54262;BME280;40174;52.364;6.452;2022-12-18T03:42:32;102562.19;;;-7.99;100.00
54262;BME280;40174;52.364;6.452;2022-12-18T03:45:13;102568.13;;;-8.02;100.00
54262;BME280;40174;52.364;6.452;2022-12-18T03:47:58;102563.72;;;-8.06;100.00
54262;BME280;40174;52.364;6.452;2022-12-18T03:50:36;102561.13;;;-8.07;100.00
54262;BME280;40174;52.364;6.452;2022-12-18T03:53:14;102562.78;;;-8.09;100.00
54262;BME280;40174;52.364;6.452;2022-12-18T03:55:47;102561.00;;;-8.12;100.00
54262;BME280;40174;52.364;6.452;2022-12-18T03:58:19;102570.47;;;-8.09;100.00
54262;BME280;40174;52.364;6.452;2022-12-18T04:01:07;102562.72;;;-8.12;100.00
54262;BME280;40174;52.364;6.452;2022-12-18T04:03:36;102558.44;;;-8.12;100.00
54262;BME280;40174;52.364;6.452;2022-12-18T04:06:06;102572.19;;;-8.10;100.00
54262;BME280;40174;52.364;6.452;2022-12-18T04:08:34;102568.69;;;-8.13;100.00
54262;BME280;40174;52.364;6.452;2022-12-18T04:11:05;102558.31;;;-8.18;100.00
54262;BME280;40174;52.364;6.452;2022-12-18T04:13:34;102559.97;;;-8.20;100.00
54262;BME280;40174;52.364;6.452;2022-12-18T04:16:06;102565.06;;;-8.22;100.00
54262;BME280;40174;52.364;6.452;2022-12-18T04:18:38;102567.56;;;-8.23;100.00
54262;BME280;40174;52.364;6.452;2022-12-18T04:21:05;102562.44;;;-8.25;100.00
54262;BME280;40174;52.364;6.452;2022-12-18T04:23:32;102560.69;;;-8.26;100.00
54262;BME280;40174;52.364;6.452;2022-12-18T04:25:59;102565.75;;;-8.27;100.00
54262;BME280;40174;52.364;6.452;2022-12-18T04:28:38;102562.31;;;-8.29;100.00
54262;BME280;40174;52.364;6.452;2022-12-18T04:31:06;102551.09;;;-8.33;100.00
54262;BME280;40174;52.364;6.452;2022-12-18T04:33:33;102560.50;;;-8.32;100.00
54262;BME280;40174;52.364;6.452;2022-12-18T04:36:00;102555.38;;;-8.33;100.00
54262;BME280;40174;52.364;6.452;2022-12-18T04:38:27;102561.25;;;-8.38;100.00
54262;BME280;40174;52.364;6.452;2022-12-18T04:41:01;102562.94;;;-8.38;100.00
54262;BME280;40174;52.364;6.452;2022-12-18T04:43:29;102562.88;;;-8.41;100.00
54262;BME280;40174;52.364;6.452;2022-12-18T04:46:01;102554.25;;;-8.45;100.00
54262;BME280;40174;52.364;6.452;2022-12-18T04:48:29;102545.66;;;-8.47;100.00
54262;BME280;40174;52.364;6.452;2022-12-18T04:50:56;102544.75;;;-8.49;100.00
54262;BME280;40174;52.364;6.452;2022-12-18T04:53:22;102540.41;;;-8.51;100.00
54262;BME280;40174;52.364;6.452;2022-12-18T04:55:49;102537.78;;;-8.53;100.00
54262;BME280;40174;52.364;6.452;2022-12-18T04:58:16;102527.47;;;-8.56;100.00
54262;BME280;40174;52.364;6.452;2022-12-18T05:00:43;102541.09;;;-8.59;100.00
54262;BME280;40174;52.364;6.452;2022-12-18T05:03:09;102549.53;;;-8.63;100.00
54262;BME280;40174;52.364;6.452;2022-12-18T05:05:37;102546.84;;;-8.66;100.00
54262;BME280;40174;52.364;6.452;2022-12-18T05:08:04;102555.41;;;-8.67;100.00
54262;BME280;40174;52.364;6.452;2022-12-18T05:10:31;102550.22;;;-8.68;100.00
54262;BME280;40174;52.364;6.452;2022-12-18T05:12:57;102549.31;;;-8.70;100.00
54262;BME280;40174;52.364;6.452;2022-12-18T05:15:26;102552.72;;;-8.71;100.00
54262;BME280;40174;52.364;6.452;2022-12-18T05:17:52;102552.72;;;-8.70;100.00
54262;BME280;40174;52.364;6.452;2022-12-18T05:20:19;102557.97;;;-8.67;100.00
54262;BME280;40174;52.364;6.452;2022-12-18T05:22:47;102560.47;;;-8.68;100.00
54262;BME280;40174;52.364;6.452;2022-12-18T05:25:14;102564.72;;;-8.69;100.00
54262;BME280;40174;52.364;6.452;2022-12-18T05:27:40;102564.72;;;-8.69;100.00
54262;BME280;40174;52.364;6.452;2022-12-18T05:30:08;102563.78;;;-8.72;100.00
54262;BME280;40174;52.364;6.452;2022-12-18T05:32:35;102573.91;;;-8.77;100.00
54262;BME280;40174;52.364;6.452;2022-12-18T05:35:01;102571.28;;;-8.80;100.00
54262;BME280;40174;52.364;6.452;2022-12-18T05:37:28;102558.31;;;-8.85;100.00
54262;BME280;40174;52.364;6.452;2022-12-18T05:39:56;102562.63;;;-8.84;100.00
54262;BME280;40174;52.364;6.452;2022-12-18T05:42:23;102560.84;;;-8.86;100.00
54262;BME280;40174;52.364;6.452;2022-12-18T05:44:49;102568.47;;;-8.88;100.00
54262;BME280;40174;52.364;6.452;2022-12-18T05:47:16;102572.66;;;-8.91;100.00
54262;BME280;40174;52.364;6.452;2022-12-18T05:49:43;102573.41;;;-8.95;100.00
54262;BME280;40174;52.364;6.452;2022-12-18T05:52:09;102581.81;;;-9.01;100.00
54262;BME280;40174;52.364;6.452;2022-12-18T05:54:36;102594.56;;;-9.03;100.00
54262;BME280;40174;52.364;6.452;2022-12-18T05:57:04;102586.75;;;-9.06;100.00
54262;BME280;40174;52.364;6.452;2022-12-18T05:59:31;102587.59;;;-9.07;100.00
54262;BME280;40174;52.364;6.452;2022-12-18T06:01:57;102589.25;;;-9.09;100.00
54262;BME280;40174;52.364;6.452;2022-12-18T06:04:24;102598.63;;;-9.09;100.00
54262;BME280;40174;52.364;6.452;2022-12-18T06:06:57;102598.59;;;-9.11;100.00
54262;BME280;40174;52.364;6.452;2022-12-18T06:09:23;102607.13;;;-9.12;100.00
54262;BME280;40174;52.364;6.452;2022-12-18T06:11:51;102608.69;;;-9.15;100.00
54262;BME280;40174;52.364;6.452;2022-12-18T06:14:19;102611.19;;;-9.18;100.00
54262;BME280;40174;52.364;6.452;2022-12-18T06:16:46;102611.97;;;-9.21;100.00
54262;BME280;40174;52.364;6.452;2022-12-18T06:19:15;102603.31;;;-9.25;100.00
54262;BME280;40174;52.364;6.452;2022-12-18T06:21:42;102599.75;;;-9.30;100.00
54262;BME280;40174;52.364;6.452;2022-12-18T06:24:09;102596.22;;;-9.33;100.00
54262;BME280;40174;52.364;6.452;2022-12-18T06:26:36;102600.41;;;-9.37;100.00
54262;BME280;40174;52.364;6.452;2022-12-18T06:29:03;102595.16;;;-9.40;100.00
54262;BME280;40174;52.364;6.452;2022-12-18T06:31:31;102590.91;;;-9.39;100.00
54262;BME280;40174;52.364;6.452;2022-12-18T06:33:57;102590.00;;;-9.42;100.00
54262;BME280;40174;52.364;6.452;2022-12-18T06:36:24;102583.94;;;-9.45;100.00
54262;BME280;40174;52.364;6.452;2022-12-18T06:38:51;102573.69;;;-9.45;100.00
54262;BME280;40174;52.364;6.452;2022-12-18T06:41:19;102566.09;;;-9.42;100.00
54262;BME280;40174;52.364;6.452;2022-12-18T06:43:46;102566.88;;;-9.45;100.00
54262;BME280;40174;52.364;6.452;2022-12-18T06:46:13;102572.91;;;-9.43;100.00
54262;BME280;40174;52.364;6.452;2022-12-18T06:48:41;102563.44;;;-9.45;100.00
54262;BME280;40174;52.364;6.452;2022-12-18T06:51:08;102554.84;;;-9.47;100.00
54262;BME280;40174;52.364;6.452;2022-12-18T06:53:34;102556.47;;;-9.49;100.00
54262;BME280;40174;52.364;6.452;2022-12-18T06:56:02;102561.59;;;-9.49;100.00
54262;BME280;40174;52.364;6.452;2022-12-18T06:58:29;102564.09;;;-9.51;100.00
54262;BME280;40174;52.364;6.452;2022-12-18T07:00:59;102559.88;;;-9.50;100.00
54262;BME280;40174;52.364;6.452;2022-12-18T07:03:26;102553.00;;;-9.51;100.00
54262;BME280;40174;52.364;6.452;2022-12-18T07:05:54;102548.66;;;-9.54;100.00
54262;BME280;40174;52.364;6.452;2022-12-18T07:08:21;102551.28;;;-9.52;100.00
54262;BME280;40174;52.364;6.452;2022-12-18T07:10:47;102546.16;;;-9.52;100.00
54262;BME280;40174;52.364;6.452;2022-12-18T07:13:15;102540.19;;;-9.51;100.00
54262;BME280;40174;52.364;6.452;2022-12-18T07:15:42;102537.69;;;-9.50;100.00
54262;BME280;40174;52.364;6.452;2022-12-18T07:18:09;102536.84;;;-9.50;100.00
54262;BME280;40174;52.364;6.452;2022-12-18T07:20:35;102527.47;;;-9.50;100.00
54262;BME280;40174;52.364;6.452;2022-12-18T07:23:04;102518.03;;;-9.51;100.00
54262;BME280;40174;52.364;6.452;2022-12-18T07:25:33;102527.41;;;-9.51;100.00
54262;BME280;40174;52.364;6.452;2022-12-18T07:28:00;102533.38;;;-9.51;100.00
54262;BME280;40174;52.364;6.452;2022-12-18T07:30:26;102529.09;;;-9.52;100.00
54262;BME280;40174;52.364;6.452;2022-12-18T07:32:53;102535.94;;;-9.51;100.00
54262;BME280;40174;52.364;6.452;2022-12-18T07:35:19;102538.56;;;-9.49;100.00
54262;BME280;40174;52.364;6.452;2022-12-18T07:37:46;102537.78;;;-9.47;100.00
54262;BME280;40174;52.364;6.452;2022-12-18T07:40:14;102537.78;;;-9.47;100.00
54262;BME280;40174;52.364;6.452;2022-12-18T07:42:41;102541.19;;;-9.46;100.00
54262;BME280;40174;52.364;6.452;2022-12-18T07:45:08;102554.00;;;-9.46;100.00
54262;BME280;40174;52.364;6.452;2022-12-18T07:47:35;102548.81;;;-9.49;100.00
54262;BME280;40174;52.364;6.452;2022-12-18T07:50:02;102553.91;;;-9.49;100.00
54262;BME280;40174;52.364;6.452;2022-12-18T07:52:29;102544.47;;;-9.52;100.00
54262;BME280;40174;52.364;6.452;2022-12-18T07:54:55;102541.03;;;-9.52;100.00
54262;BME280;40174;52.364;6.452;2022-12-18T07:57:23;102545.28;;;-9.53;100.00
54262;BME280;40174;52.364;6.452;2022-12-18T07:59:50;102537.66;;;-9.51;100.00
54262;BME280;40174;52.364;6.452;2022-12-18T08:02:17;102545.31;;;-9.51;100.00
54262;BME280;40174;52.364;6.452;2022-12-18T08:04:43;102538.47;;;-9.52;100.00
54262;BME280;40174;52.364;6.452;2022-12-18T08:07:10;102533.38;;;-9.51;100.00
54262;BME280;40174;52.364;6.452;2022-12-18T08:09:37;102524.94;;;-9.48;100.00
54262;BME280;40174;52.364;6.452;2022-12-18T08:12:04;102517.28;;;-9.48;100.00
54262;BME280;40174;52.364;6.452;2022-12-18T08:14:32;102525.03;;;-9.45;100.00
54262;BME280;40174;52.364;6.452;2022-12-18T08:16:58;102519.97;;;-9.42;100.00
54262;BME280;40174;52.364;6.452;2022-12-18T08:19:25;102515.78;;;-9.40;100.00
54262;BME280;40174;52.364;6.452;2022-12-18T08:21:52;102509.84;;;-9.39;100.00
54262;BME280;40174;52.364;6.452;2022-12-18T08:24:18;102515.06;;;-9.36;100.00
54262;BME280;40174;52.364;6.452;2022-12-18T08:26:45;102511.66;;;-9.35;100.00
54262;BME280;40174;52.364;6.452;2022-12-18T08:29:11;102519.44;;;-9.32;100.00
54262;BME280;40174;52.364;6.452;2022-12-18T08:31:39;102510.91;;;-9.31;100.00
54262;BME280;40174;52.364;6.452;2022-12-18T08:34:07;102495.59;;;-9.29;100.00
54262;BME280;40174;52.364;6.452;2022-12-18T08:36:34;102495.72;;;-9.25;100.00
54262;BME280;40174;52.364;6.452;2022-12-18T08:39:00;102499.25;;;-9.21;100.00
54262;BME280;40174;52.364;6.452;2022-12-18T08:41:27;102503.53;;;-9.20;100.00
54262;BME280;40174;52.364;6.452;2022-12-18T08:43:53;102507.00;;;-9.18;100.00
54262;BME280;40174;52.364;6.452;2022-12-18T08:46:41;102499.47;;;-9.13;100.00
54262;BME280;40174;52.364;6.452;2022-12-18T08:49:09;102508.13;;;-9.08;100.00
54262;BME280;40174;52.364;6.452;2022-12-18T08:51:37;102507.44;;;-9.03;100.00
54262;BME280;40174;52.364;6.452;2022-12-18T08:54:04;102500.69;;;-8.99;100.00
54262;BME280;40174;52.364;6.452;2022-12-18T08:56:31;102499.13;;;-8.94;100.00
54262;BME280;40174;52.364;6.452;2022-12-18T08:58:58;102492.44;;;-8.89;100.00
54262;BME280;40174;52.364;6.452;2022-12-18T09:01:25;102493.41;;;-8.84;100.00
54262;BME280;40174;52.364;6.452;2022-12-18T09:03:53;102491.81;;;-8.80;100.00
54262;BME280;40174;52.364;6.452;2022-12-18T09:06:21;102478.19;;;-8.77;100.00
54262;BME280;40174;52.364;6.452;2022-12-18T09:08:48;102485.16;;;-8.73;100.00
54262;BME280;40174;52.364;6.452;2022-12-18T09:11:19;102496.31;;;-8.70;100.00
54262;BME280;40174;52.364;6.452;2022-12-18T09:13:46;102492.03;;;-8.71;100.00
54262;BME280;40174;52.364;6.452;2022-12-18T09:16:13;102489.53;;;-8.69;100.00
54262;BME280;40174;52.364;6.452;2022-12-18T09:18:40;102508.50;;;-8.63;100.00
54262;BME280;40174;52.364;6.452;2022-12-18T09:21:12;102501.72;;;-8.59;100.00
54262;BME280;40174;52.364;6.452;2022-12-18T09:23:40;102495.78;;;-8.58;100.00
54262;BME280;40174;52.364;6.452;2022-12-18T09:26:06;102495.75;;;-8.60;100.00
54262;BME280;40174;52.364;6.452;2022-12-18T09:28:33;102505.88;;;-8.64;100.00
54262;BME280;40174;52.364;6.452;2022-12-18T09:31:04;102489.72;;;-8.62;100.00
54262;BME280;40174;52.364;6.452;2022-12-18T09:33:31;102486.41;;;-8.58;100.00
54262;BME280;40174;52.364;6.452;2022-12-18T09:36:01;102479.56;;;-8.57;100.00
54262;BME280;40174;52.364;6.452;2022-12-18T09:38:29;102481.53;;;-8.47;100.00
54262;BME280;40174;52.364;6.452;2022-12-18T09:40:59;102480.69;;;-8.46;100.00
54262;BME280;40174;52.364;6.452;2022-12-18T09:43:30;102481.09;;;-8.29;100.00
54262;BME280;40174;52.364;6.452;2022-12-18T09:46:03;102466.72;;;-8.21;100.00
54262;BME280;40174;52.364;6.452;2022-12-18T09:48:35;102466.00;;;-8.15;100.00
54262;BME280;40174;52.364;6.452;2022-12-18T09:51:08;102485.72;;;-8.12;100.00
54262;BME280;40174;52.364;6.452;2022-12-18T09:53:41;102491.22;;;-7.97;100.00
54262;BME280;40174;52.364;6.452;2022-12-18T09:56:13;102491.19;;;-7.99;100.00
54262;BME280;40174;52.364;6.452;2022-12-18T09:58:46;102489.81;;;-7.84;100.00
54262;BME280;40174;52.364;6.452;2022-12-18T10:01:18;102479.56;;;-7.83;100.00
54262;BME280;40174;52.364;6.452;2022-12-18T10:03:47;102486.59;;;-7.76;100.00
54262;BME280;40174;52.364;6.452;2022-12-18T10:06:16;102485.22;;;-7.60;100.00
54262;BME280;40174;52.364;6.452;2022-12-18T10:08:50;102483.78;;;-7.45;100.00
54262;BME280;40174;52.364;6.452;2022-12-18T10:11:30;102471.03;;;-7.41;100.00
54262;BME280;40174;52.364;6.452;2022-12-18T10:14:05;102456.72;;;-7.28;100.00
54262;BME280;40174;52.364;6.452;2022-12-18T10:16:39;102432.91;;;-7.18;100.00
54262;BME280;40174;52.364;6.452;2022-12-18T10:19:20;102421.94;;;-7.11;100.00
54262;BME280;40174;52.364;6.452;2022-12-18T10:21:56;102404.81;;;-7.10;100.00
54262;BME280;40174;52.364;6.452;2022-12-18T10:24:32;102399.94;;;-6.93;100.00
54262;BME280;40174;52.364;6.452;2022-12-18T10:27:11;102397.44;;;-6.90;100.00
54262;BME280;40174;52.364;6.452;2022-12-18T10:29:38;102393.25;;;-6.83;100.00
54262;BME280;40174;52.364;6.452;2022-12-18T10:32:06;102383.84;;;-6.83;100.00
54262;BME280;40174;52.364;6.452;2022-12-18T10:34:33;102376.34;;;-6.69;100.00
54262;BME280;40174;52.364;6.452;2022-12-18T10:37:00;102374.75;;;-6.61;100.00
54262;BME280;40174;52.364;6.452;2022-12-18T10:39:29;102385.13;;;-6.55;100.00
54262;BME280;40174;52.364;6.452;2022-12-18T10:42:10;102382.75;;;-6.42;100.00
54262;BME280;40174;52.364;6.452;2022-12-18T10:44:38;102375.78;;;-6.48;100.00
54262;BME280;40174;52.364;6.452;2022-12-18T10:47:06;102373.50;;;-6.30;100.00
54262;BME280;40174;52.364;6.452;2022-12-18T10:49:41;102375.38;;;-6.18;100.00
54262;BME280;40174;52.364;6.452;2022-12-18T10:52:16;102374.56;;;-6.12;100.00
54262;BME280;40174;52.364;6.452;2022-12-18T10:54:49;102373.03;;;-5.99;100.00
54262;BME280;40174;52.364;6.452;2022-12-18T10:57:32;102365.34;;;-5.98;100.00
54262;BME280;40174;52.364;6.452;2022-12-18T11:00:19;102365.38;;;-5.93;100.00
54262;BME280;40174;52.364;6.452;2022-12-18T11:02:49;102356.09;;;-5.80;100.00
54262;BME280;40174;52.364;6.452;2022-12-18T11:05:28;102360.41;;;-5.78;100.00
54262;BME280;40174;52.364;6.452;2022-12-18T11:07:57;102358.88;;;-5.62;100.00
54262;BME280;40174;52.364;6.452;2022-12-18T11:10:30;102345.19;;;-5.58;100.00
54262;BME280;40174;52.364;6.452;2022-12-18T11:13:09;102348.72;;;-5.45;100.00
54262;BME280;40174;52.364;6.452;2022-12-18T11:15:36;102352.22;;;-5.40;100.00
54262;BME280;40174;52.364;6.452;2022-12-18T11:18:03;102347.19;;;-5.28;100.00
54262;BME280;40174;52.364;6.452;2022-12-18T11:20:32;102346.28;;;-5.33;100.00
54262;BME280;40174;52.364;6.452;2022-12-18T11:23:01;102339.50;;;-5.22;100.00
54262;BME280;40174;52.364;6.452;2022-12-18T11:25:31;102341.25;;;-5.16;100.00
54262;BME280;40174;52.364;6.452;2022-12-18T11:28:00;102347.31;;;-5.15;100.00
54262;BME280;40174;52.364;6.452;2022-12-18T11:30:29;102349.22;;;-4.93;100.00
54262;BME280;40174;52.364;6.452;2022-12-18T11:32:59;102350.97;;;-4.87;100.00
54262;BME280;40174;52.364;6.452;2022-12-18T11:35:36;102341.47;;;-4.91;100.00
54262;BME280;40174;52.364;6.452;2022-12-18T11:38:10;102333.78;;;-4.88;100.00
54262;BME280;40174;52.364;6.452;2022-12-18T11:40:44;102332.03;;;-4.92;100.00
54262;BME280;40174;52.364;6.452;2022-12-18T11:43:15;102327.78;;;-4.83;100.00
54262;BME280;40174;52.364;6.452;2022-12-18T11:45:48;102332.19;;;-4.69;100.00
54262;BME280;40174;52.364;6.452;2022-12-18T11:48:19;102322.81;;;-4.60;100.00
54262;BME280;40174;52.364;6.452;2022-12-18T11:50:50;102322.84;;;-4.49;100.00
54262;BME280;40174;52.364;6.452;2022-12-18T11:53:17;102321.16;;;-4.48;100.00
54262;BME280;40174;52.364;6.452;2022-12-18T11:55:54;102315.16;;;-4.40;100.00
54262;BME280;40174;52.364;6.452;2022-12-18T11:58:36;102324.63;;;-4.40;100.00
54262;BME280;40174;52.364;6.452;2022-12-18T12:01:23;102322.91;;;-4.40;100.00
54262;BME280;40174;52.364;6.452;2022-12-18T12:04:14;102323.78;;;-4.38;100.00
54262;BME280;40174;52.364;6.452;2022-12-18T12:06:53;102310.88;;;-4.38;100.00
54262;BME280;40174;52.364;6.452;2022-12-18T12:09:29;102306.63;;;-4.22;100.00
54262;BME280;40174;52.364;6.452;2022-12-18T12:12:11;102302.34;;;-4.23;100.00
54262;BME280;40174;52.364;6.452;2022-12-18T12:14:49;102293.72;;;-4.25;100.00
54262;BME280;40174;52.364;6.452;2022-12-18T12:17:29;102279.13;;;-4.16;100.00
54262;BME280;40174;52.364;6.452;2022-12-18T12:20:02;102266.25;;;-4.09;100.00
54262;BME280;40174;52.364;6.452;2022-12-18T12:22:39;102268.84;;;-4.06;100.00
54262;BME280;40174;52.364;6.452;2022-12-18T12:25:21;102266.28;;;-4.03;100.00
54262;BME280;40174;52.364;6.452;2022-12-18T12:28:05;102255.09;;;-3.92;100.00
54262;BME280;40174;52.364;6.452;2022-12-18T12:30:46;102248.22;;;-3.93;100.00
54262;BME280;40174;52.364;6.452;2022-12-18T12:33:24;102243.03;;;-3.90;100.00
54262;BME280;40174;52.364;6.452;2022-12-18T12:36:01;102252.53;;;-3.89;100.00
54262;BME280;40174;52.364;6.452;2022-12-18T12:38:35;102241.31;;;-3.84;100.00
54262;BME280;40174;52.364;6.452;2022-12-18T12:41:09;102245.66;;;-3.73;100.00
54262;BME280;40174;52.364;6.452;2022-12-18T12:44:02;102243.94;;;-3.81;100.00
54262;BME280;40174;52.364;6.452;2022-12-18T12:46:30;102244.78;;;-3.72;100.00
54262;BME280;40174;52.364;6.452;2022-12-18T12:49:01;102245.69;;;-3.67;100.00
54262;BME280;40174;52.364;6.452;2022-12-18T12:51:32;102242.22;;;-3.69;100.00
54262;BME280;40174;52.364;6.452;2022-12-18T12:54:01;102241.34;;;-3.68;100.00
54262;BME280;40174;52.364;6.452;2022-12-18T12:56:36;102220.69;;;-3.64;100.00
54262;BME280;40174;52.364;6.452;2022-12-18T12:59:14;102224.13;;;-3.57;100.00
54262;BME280;40174;52.364;6.452;2022-12-18T13:01:49;102217.25;;;-3.55;100.00
54262;BME280;40174;52.364;6.452;2022-12-18T13:04:26;102223.28;;;-3.50;100.00
54262;BME280;40174;52.364;6.452;2022-12-18T13:07:01;102218.97;;;-3.46;100.00